This is the latest recevied weather packets stored in our database for station/object N3LF. If no packets are shown the sender has not sent any weather packets the latest 10 day(s).
| Time | Temp. | Humidity | Pressure | Rain* | Wind** | Luminosity | Snow |
|---|---|---|---|---|---|---|---|
| 1788366544 | 35° C | 53% | 1021.9 hPa | 0 mm | - | 611 W/m² | - |
| 1788366240 | 35° C | 49% | 1021.8 hPa | 0 mm | - | 604 W/m² | - |
| 1788365940 | 33.89° C | 51% | 1022 hPa | 0 mm | - | 599 W/m² | - |
| 1788365635 | 33.89° C | 53% | 1022 hPa | 0 mm | - | 589 W/m² | - |
| 1788365331 | 35.56° C | 50% | 1022 hPa | 0 mm | - | 579 W/m² | - |
| 1788365027 | 34.44° C | 53% | 1022.2 hPa | 0 mm | - | 573 W/m² | - |
| 1788364724 | 33.89° C | 54% | 1022.2 hPa | 0 mm | - | 563 W/m² | - |
| 1788364423 | 34.44° C | 54% | 1022.1 hPa | 0 mm | - | 558 W/m² | - |
| 1788364119 | 33.89° C | 56% | 1022.2 hPa | 0 mm | - | 548 W/m² | - |
| 1788363814 | 35° C | 56% | 1022.3 hPa | 0 mm | - | 540 W/m² | - |
| 1788363513 | 34.44° C | 59% | 1022.2 hPa | 0 mm | - | 529 W/m² | - |
| 1788363212 | 34.44° C | 59% | 1022.2 hPa | 0 mm | - | 521 W/m² | - |
| 1788362909 | 33.33° C | 63% | 1022.2 hPa | 0 mm | - | 512 W/m² | - |
| 1788362604 | 34.44° C | 62% | 1022.4 hPa | 0 mm | - | 502 W/m² | - |
| 1788362300 | 33.89° C | 62% | 1022.4 hPa | 0 mm | - | 490 W/m² | - |
| 1788361995 | 33.33° C | 64% | 1022.4 hPa | 0 mm | - | 479 W/m² | - |
| 1788361689 | 32.78° C | 67% | 1022.5 hPa | 0 mm | - | 470 W/m² | - |
| 1788361386 | 32.78° C | 66% | 1022.3 hPa | 0 mm | - | 457 W/m² | - |
| 1788361085 | 32.22° C | 68% | 1022.4 hPa | 0 mm | - | 445 W/m² | - |
| 1788360780 | 32.22° C | 70% | 1022.3 hPa | 0 mm | - | 434 W/m² | - |
| 1788360475 | 32.22° C | 69% | 1022.2 hPa | 0 mm | - | 420 W/m² | - |
| 1788360171 | 32.22° C | 70% | 1022.4 hPa | 0 mm | - | 407 W/m² | - |
| 1788359866 | 32.78° C | 71% | 1022.3 hPa | 0 mm | - | 395 W/m² | - |
| 1788359561 | 31.67° C | 72% | 1022.2 hPa | 0 mm | - | 383 W/m² | - |
| 1788359257 | 31.67° C | 75% | 1022.2 hPa | 0 mm | - | 371 W/m² | - |
* Rain latest hour (hover to see other rain measurements)
** Current wind speed in m/s (hover to see current wind gust speed)